Alturas, California
Current Conditions -  °F | °C
As of 10:09 PM on Friday 19 Dec 2014 (Local Time) from KAAT Reporting Station
Overcast Overcast  
Wind Chill: 33°   Ceiling: 5500
Heat Index: 38°   Visibility: 10mi
Dew Point: 35°   Wind: 6mph
Humidity: 89%   Direction: 180°S
Pressure: 30.06"   Gusts: NA
Location:  41.49°N, 120.54°W
Report Text: KAAT 200609Z AUTO 18005KT 10SM SCT027 OVC055 03/02 A3006 RMK AO2 T00330017
Loading
Personal Weather Stations






























Interactive Weather Map New forecast layout! Learn more

10-Day Weather Forecast

Advertisements
Track Severe Weather on mobile